Time;durP1;ratioP1;P1;durP2;ratioP2;P2;SDS_P1;SDS_P2;PMS_P1;PMS_P2;Temp;Humidity;BMP_temperature;BMP_pressure;BME280_temperature;BME280_humidity;BME280_pressure;Samples;Min_cycle;Max_cycle;Signal;HPM_P1;HPM_P2
2022/04/06 00:00:13;;;;;;;5.07;3.08;;;8.00;99.90;;;;;;5071278;28;20082;-74
2022/04/06 00:02:40;;;;;;;5.80;3.50;;;8.00;99.90;;;;;;5088947;28;20059;-74
2022/04/06 00:05:10;;;;;;;6.10;3.33;;;7.70;99.90;;;;;;5082387;28;20025;-74
2022/04/06 00:07:36;;;;;;;6.82;3.10;;;7.60;99.90;;;;;;5071639;28;20086;-74
2022/04/06 00:10:04;;;;;;;5.82;3.13;;;7.60;99.90;;;;;;5082871;28;20033;-75
2022/04/06 00:12:30;;;;;;;4.72;3.13;;;7.50;99.90;;;;;;5087317;28;20504;-74
2022/04/06 00:14:55;;;;;;;5.07;3.13;;;7.60;99.90;;;;;;5075593;28;20017;-74
2022/04/06 00:17:21;;;;;;;5.03;3.13;;;7.70;99.90;;;;;;5085716;28;20432;-74
2022/04/06 00:19:47;;;;;;;6.22;3.55;;;7.60;99.90;;;;;;5088481;28;20031;-74
2022/04/06 00:22:13;;;;;;;7.65;3.28;;;7.50;99.90;;;;;;5088504;28;20032;-74
2022/04/06 00:24:39;;;;;;;5.45;2.97;;;7.30;99.90;;;;;;5086465;28;20116;-75
2022/04/06 00:27:05;;;;;;;5.28;3.10;;;7.20;99.90;;;;;;5076188;28;20162;-74
2022/04/06 00:29:31;;;;;;;6.05;3.15;;;7.00;99.90;;;;;;5089158;28;20028;-73
2022/04/06 00:31:56;;;;;;;6.80;2.90;;;6.90;99.90;;;;;;5090425;28;20510;-74
2022/04/06 00:35:28;;;;;;;4.57;2.83;;;6.80;99.90;;;;;;5089693;28;20028;-74
2022/04/06 00:37:08;;;;;;;5.13;3.20;;;6.90;99.90;;;;;;5079420;28;20021;-74
2022/04/06 00:39:34;;;;;;;5.38;2.85;;;7.00;99.90;;;;;;5090118;28;20028;-74
2022/04/06 00:41:59;;;;;;;3.65;2.70;;;7.00;99.90;;;;;;5072730;28;20036;-74
2022/04/06 00:44:27;;;;;;;4.80;2.80;;;7.10;99.90;;;;;;5089404;28;20107;-74
2022/04/06 00:46:53;;;;;;;2.88;2.28;;;7.00;99.90;;;;;;5090229;28;20023;-74
2022/04/06 00:49:18;;;;;;;4.45;2.85;;;7.00;99.90;;;;;;5083821;28;20029;-74
2022/04/06 00:51:46;;;;;;;5.97;2.70;;;6.90;99.90;;;;;;5072462;28;20052;-74
2022/04/06 00:54:18;;;;;;;4.55;2.70;;;7.00;99.90;;;;;;5089890;28;20039;-75
2022/04/06 00:56:45;;;;;;;4.43;3.03;;;6.80;99.90;;;;;;5092520;28;20032;-74
2022/04/06 00:59:11;;;;;;;5.40;2.80;;;6.80;99.90;;;;;;5083694;28;20031;-74
2022/04/06 01:01:37;;;;;;;5.00;2.70;;;6.70;99.90;;;;;;5084731;28;20052;-74
2022/04/06 01:04:04;;;;;;;4.13;2.50;;;6.60;99.90;;;;;;5072078;28;20040;-74
2022/04/06 01:06:29;;;;;;;4.22;2.83;;;6.70;99.90;;;;;;5088468;28;20019;-74
2022/04/06 01:08:56;;;;;;;5.60;2.40;;;6.40;99.90;;;;;;5086724;28;20028;-74
2022/04/06 01:11:24;;;;;;;4.07;2.58;;;6.30;99.90;;;;;;5081583;28;20548;-74
2022/04/06 01:13:51;;;;;;;2.47;2.00;;;6.30;99.90;;;;;;5071697;28;20028;-74
2022/04/06 01:16:17;;;;;;;3.90;2.30;;;6.40;99.90;;;;;;5079036;28;20028;-74
2022/04/06 01:18:43;;;;;;;3.53;2.28;;;6.30;99.90;;;;;;5091749;28;20039;-74
2022/04/06 01:21:11;;;;;;;3.95;2.22;;;6.30;99.90;;;;;;5076959;28;20416;-74
2022/04/06 01:23:41;;;;;;;4.55;2.53;;;6.30;99.90;;;;;;5087046;28;20409;-75
2022/04/06 01:26:08;;;;;;;4.70;2.30;;;6.30;99.90;;;;;;5086098;28;20070;-74
2022/04/06 01:28:34;;;;;;;2.88;2.13;;;6.20;99.90;;;;;;5083268;28;20509;-74
2022/04/06 01:31:00;;;;;;;2.85;2.40;;;6.30;99.90;;;;;;5075206;28;20024;-74
2022/04/06 01:33:25;;;;;;;7.72;2.70;;;6.30;99.90;;;;;;5090699;28;20027;-74
2022/04/06 01:35:51;;;;;;;3.97;2.72;;;6.30;99.90;;;;;;5077226;28;20544;-74
2022/04/06 01:38:17;;;;;;;3.25;2.13;;;6.30;99.90;;;;;;5079212;28;20032;-74
2022/04/06 01:40:42;;;;;;;4.75;2.90;;;6.30;99.90;;;;;;5084168;28;20032;-75
2022/04/06 01:43:09;;;;;;;5.30;2.95;;;6.30;99.90;;;;;;5071442;28;20490;-75
2022/04/06 01:45:36;;;;;;;3.97;2.97;;;6.30;99.90;;;;;;5088535;28;20052;-74
2022/04/06 01:48:01;;;;;;;3.95;2.75;;;6.40;99.90;;;;;;5092916;28;20020;-75
2022/04/06 01:53:11;;;;;;;5.10;2.83;;;6.50;99.90;;;;;;5091038;28;20085;-74
2022/04/06 01:55:37;;;;;;;4.75;2.60;;;6.60;99.90;;;;;;5079977;28;20048;-74
2022/04/06 01:58:02;;;;;;;5.03;2.85;;;6.40;99.90;;;;;;5076081;28;20042;-74
2022/04/06 02:00:28;;;;;;;3.75;2.67;;;6.50;99.90;;;;;;5089980;28;20359;-74
2022/04/06 02:02:54;;;;;;;4.40;3.35;;;6.40;99.90;;;;;;5085649;28;20074;-74
2022/04/06 02:05:21;;;;;;;4.90;3.20;;;6.40;99.90;;;;;;5082327;28;20032;-74
2022/04/06 02:07:48;;;;;;;6.97;4.00;;;6.20;99.90;;;;;;5082105;28;20481;-75
2022/04/06 02:10:15;;;;;;;6.97;3.95;;;6.10;99.90;;;;;;5085549;28;20096;-75
2022/04/06 02:12:41;;;;;;;6.65;3.60;;;6.10;99.90;;;;;;5073944;28;20043;-74
2022/04/06 02:15:10;;;;;;;4.88;3.35;;;6.10;99.90;;;;;;5075890;28;20060;-74
2022/04/06 02:17:36;;;;;;;5.55;3.03;;;6.10;99.90;;;;;;5090183;28;20025;-74
2022/04/06 02:20:02;;;;;;;4.90;3.22;;;6.00;99.90;;;;;;5090675;28;20165;-74
2022/04/06 02:22:28;;;;;;;5.28;2.75;;;5.90;99.90;;;;;;5088099;28;20036;-74
2022/04/06 02:24:55;;;;;;;3.05;2.67;;;5.80;99.90;;;;;;5085423;28;20024;-75
2022/04/06 02:27:20;;;;;;;4.68;3.25;;;6.00;99.90;;;;;;5087788;28;20038;-74
2022/04/06 02:29:46;;;;;;;4.82;2.78;;;6.20;99.90;;;;;;5083697;28;20020;-75
2022/04/06 02:32:12;;;;;;;3.95;2.65;;;6.30;99.90;;;;;;5078434;28;20047;-74
2022/04/06 02:34:38;;;;;;;5.35;2.70;;;6.40;99.90;;;;;;5079295;28;20738;-74
2022/04/06 02:37:04;;;;;;;4.32;2.70;;;6.40;99.90;;;;;;5088892;28;20024;-74
2022/04/06 02:39:30;;;;;;;3.92;2.30;;;6.40;99.90;;;;;;5090345;28;20039;-74
2022/04/06 02:41:55;;;;;;;3.25;2.00;;;6.40;99.90;;;;;;5091937;28;20028;-74
2022/04/06 02:44:21;;;;;;;3.88;2.60;;;6.20;99.90;;;;;;5081258;28;20108;-74
2022/04/06 02:46:48;;;;;;;3.22;2.13;;;6.30;99.90;;;;;;5088506;28;20394;-73
2022/04/06 02:49:14;;;;;;;4.40;2.47;;;6.40;99.90;;;;;;5089263;28;20058;-74
2022/04/06 02:51:41;;;;;;;2.95;1.90;;;6.50;99.90;;;;;;5089750;28;20474;-74
2022/04/06 02:54:07;;;;;;;2.33;1.95;;;6.60;99.90;;;;;;5091663;28;20063;-74
2022/04/06 02:56:33;;;;;;;3.75;2.47;;;6.70;99.90;;;;;;5081442;28;20067;-74
2022/04/06 02:59:01;;;;;;;2.72;1.95;;;6.80;99.90;;;;;;5089126;28;20110;-74
2022/04/06 03:01:27;;;;;;;2.55;2.00;;;6.70;99.90;;;;;;5089841;28;20031;-74
2022/04/06 03:03:53;;;;;;;3.55;2.50;;;6.80;99.90;;;;;;5089726;28;20650;-74
2022/04/06 03:06:18;;;;;;;3.03;2.00;;;6.70;99.90;;;;;;5090243;28;20047;-74
2022/04/06 03:08:45;;;;;;;2.42;1.67;;;6.60;99.90;;;;;;5082769;28;20072;-74
2022/04/06 03:11:11;;;;;;;3.28;1.98;;;6.60;99.90;;;;;;5081431;28;20497;-74
2022/04/06 03:13:36;;;;;;;4.63;1.80;;;6.50;99.90;;;;;;5083826;28;20054;-74
2022/04/06 03:16:02;;;;;;;3.03;1.85;;;6.70;99.90;;;;;;5085147;28;20414;-74
2022/04/06 03:18:28;;;;;;;2.58;1.80;;;6.80;99.90;;;;;;5086224;28;20023;-74
2022/04/06 03:20:54;;;;;;;3.67;2.13;;;6.90;99.90;;;;;;5084361;28;20091;-74
2022/04/06 03:23:21;;;;;;;3.33;2.15;;;6.90;99.90;;;;;;5085355;28;20481;-74
2022/04/06 03:25:47;;;;;;;3.38;2.28;;;6.80;99.90;;;;;;5080961;28;20106;-75
2022/04/06 03:28:13;;;;;;;3.75;2.13;;;6.90;99.90;;;;;;5087976;28;20031;-74
2022/04/06 03:30:40;;;;;;;3.72;1.90;;;6.90;99.90;;;;;;5086486;28;20020;-74
2022/04/06 03:33:06;;;;;;;2.53;1.80;;;7.00;99.90;;;;;;5071188;28;20036;-74
2022/04/06 03:35:33;;;;;;;2.70;1.80;;;7.00;99.90;;;;;;5086030;28;20052;-74
2022/04/06 03:37:58;;;;;;;2.22;1.85;;;7.20;99.90;;;;;;5089013;28;20050;-74
2022/04/06 03:40:24;;;;;;;4.30;2.10;;;7.20;99.90;;;;;;5086337;28;20081;-75
2022/04/06 03:42:50;;;;;;;2.20;1.73;;;7.30;99.90;;;;;;5069710;28;20567;-74
2022/04/06 03:45:15;;;;;;;2.13;1.92;;;7.20;99.90;;;;;;5086699;28;20024;-74
2022/04/06 03:47:44;;;;;;;2.30;1.50;;;7.10;99.90;;;;;;5088573;28;20032;-74
2022/04/06 03:50:10;;;;;;;4.15;2.65;;;7.10;99.90;;;;;;5089132;28;20043;-75
2022/04/06 03:52:36;;;;;;;2.03;1.52;;;7.20;99.90;;;;;;5085560;28;20493;-74
2022/04/06 03:55:02;;;;;;;1.92;1.75;;;7.20;99.90;;;;;;5073843;28;20048;-74
2022/04/06 03:57:28;;;;;;;1.95;1.60;;;7.10;99.90;;;;;;5086859;28;20024;-75
2022/04/06 03:59:54;;;;;;;2.28;1.67;;;7.10;99.90;;;;;;5083483;28;20353;-74
2022/04/06 04:02:19;;;;;;;2.38;1.85;;;7.10;99.90;;;;;;5088888;28;20067;-75
2022/04/06 04:04:45;;;;;;;4.13;1.83;;;7.10;99.90;;;;;;5084456;28;20441;-75
2022/04/06 04:07:11;;;;;;;4.90;2.03;;;7.10;99.90;;;;;;5092938;28;20096;-74
2022/04/06 04:09:37;;;;;;;2.70;1.60;;;7.10;99.90;;;;;;5075250;28;20119;-74
2022/04/06 04:12:04;;;;;;;3.33;2.03;;;7.10;99.90;;;;;;5094959;28;20028;-74
2022/04/06 04:14:32;;;;;;;3.53;2.20;;;7.20;99.90;;;;;;5084458;28;20024;-75
2022/04/06 04:16:58;;;;;;;2.72;2.00;;;7.30;99.90;;;;;;5093117;28;20031;-74
2022/04/06 04:19:24;;;;;;;2.70;2.05;;;7.40;99.90;;;;;;5083692;28;20024;-75
2022/04/06 04:21:50;;;;;;;3.13;2.42;;;7.40;99.90;;;;;;5075504;28;20034;-74
2022/04/06 04:24:15;;;;;;;3.75;2.17;;;7.30;99.90;;;;;;5094200;28;20033;-75
2022/04/06 04:26:41;;;;;;;6.03;2.88;;;7.30;99.90;;;;;;5085324;28;20079;-74
2022/04/06 04:29:07;;;;;;;5.65;2.60;;;7.40;99.90;;;;;;5091767;28;20019;-74
2022/04/06 04:31:34;;;;;;;4.28;2.88;;;7.50;99.90;;;;;;5089752;28;20039;-75
2022/04/06 04:34:00;;;;;;;8.15;3.20;;;7.50;99.90;;;;;;5092171;28;20054;-75
2022/04/06 04:36:26;;;;;;;6.20;3.17;;;7.50;99.90;;;;;;5091595;28;20020;-74
2022/04/06 04:38:52;;;;;;;4.00;3.08;;;7.60;99.90;;;;;;5087119;28;20031;-74
2022/04/06 04:41:18;;;;;;;3.78;2.90;;;7.50;99.90;;;;;;5083823;28;20032;-74
2022/04/06 04:43:43;;;;;;;4.60;2.85;;;7.50;99.90;;;;;;5083042;28;20078;-74
2022/04/06 04:46:09;;;;;;;3.50;2.38;;;7.60;99.90;;;;;;5075094;28;20058;-74
2022/04/06 04:48:35;;;;;;;6.68;3.28;;;7.60;99.90;;;;;;5074771;28;20051;-74
2022/04/06 04:51:01;;;;;;;6.38;3.47;;;7.60;99.90;;;;;;5094289;28;20504;-74
2022/04/06 04:53:27;;;;;;;4.53;2.80;;;7.60;99.90;;;;;;5089962;28;20032;-74
2022/04/06 04:55:53;;;;;;;6.15;2.85;;;7.60;99.90;;;;;;5083323;28;20428;-74
2022/04/06 04:58:20;;;;;;;4.38;3.17;;;7.60;99.90;;;;;;5090440;28;20577;-74
2022/04/06 05:00:46;;;;;;;5.25;3.10;;;7.60;99.90;;;;;;5092662;28;20034;-74
2022/04/06 05:03:12;;;;;;;5.25;3.53;;;7.60;99.90;;;;;;5094246;28;20032;-74
2022/04/06 05:05:44;;;;;;;5.72;3.22;;;7.60;99.90;;;;;;5084400;28;20728;-74
2022/04/06 05:08:10;;;;;;;5.72;3.67;;;7.60;99.90;;;;;;5082568;28;20490;-74
2022/04/06 05:10:36;;;;;;;5.10;3.03;;;7.60;99.90;;;;;;5076572;28;20549;-74
2022/04/06 05:13:04;;;;;;;4.55;3.20;;;7.60;99.90;;;;;;5091223;28;20073;-74
2022/04/06 05:15:29;;;;;;;7.07;3.97;;;7.60;99.90;;;;;;5092159;28;20016;-74
2022/04/06 05:17:55;;;;;;;5.85;3.85;;;7.60;99.90;;;;;;5090837;28;20031;-74
2022/04/06 05:20:21;;;;;;;5.20;3.70;;;7.60;99.90;;;;;;5091181;28;20524;-74
2022/04/06 05:22:47;;;;;;;6.88;4.32;;;7.60;99.90;;;;;;5088118;28;20020;-74
2022/04/06 05:25:12;;;;;;;7.60;4.20;;;7.60;99.90;;;;;;5084878;28;20036;-74
2022/04/06 05:27:52;;;;;;;8.48;3.90;;;7.60;99.90;;;;;;5074208;28;20024;-74
2022/04/06 05:30:21;;;;;;;9.15;3.83;;;7.60;99.90;;;;;;5092235;28;20020;-74
2022/04/06 05:32:49;;;;;;;5.32;3.42;;;7.60;99.90;;;;;;5084908;28;20093;-74
2022/04/06 05:35:15;;;;;;;5.85;3.53;;;7.60;99.90;;;;;;5077330;28;20462;-74
2022/04/06 05:37:42;;;;;;;5.80;3.80;;;7.60;99.90;;;;;;5074421;28;20574;-74
2022/04/06 05:40:10;;;;;;;6.25;3.85;;;7.60;99.90;;;;;;5087643;28;20055;-74
2022/04/06 05:42:36;;;;;;;5.53;3.92;;;7.60;99.90;;;;;;5072386;28;20029;-74
2022/04/06 05:45:04;;;;;;;5.72;3.92;;;7.60;99.90;;;;;;5087252;28;20024;-74
2022/04/06 05:47:30;;;;;;;9.07;3.83;;;7.60;99.90;;;;;;5082872;28;20121;-74
2022/04/06 05:49:55;;;;;;;8.32;3.67;;;7.60;99.90;;;;;;5090493;28;20509;-74
2022/04/06 05:52:21;;;;;;;7.85;3.92;;;7.60;99.90;;;;;;5089573;28;20444;-74
2022/04/06 05:54:47;;;;;;;4.90;3.70;;;7.60;99.90;;;;;;5091141;28;20040;-74
2022/04/06 05:57:12;;;;;;;5.38;3.70;;;7.60;99.90;;;;;;5088490;28;20493;-74
2022/04/06 05:59:39;;;;;;;6.05;4.03;;;7.70;99.90;;;;;;5075179;28;20025;-74
2022/04/06 06:02:06;;;;;;;7.50;4.03;;;7.60;99.90;;;;;;5084198;28;20020;-74
2022/04/06 06:04:33;;;;;;;5.28;3.47;;;7.60;99.90;;;;;;5082175;28;20131;-74
2022/04/06 06:06:59;;;;;;;6.47;4.05;;;7.70;99.90;;;;;;5089468;28;20030;-74
2022/04/06 06:09:25;;;;;;;5.03;3.83;;;7.70;99.90;;;;;;5091134;28;20021;-74
2022/04/06 06:11:51;;;;;;;6.85;3.95;;;7.70;99.90;;;;;;5092272;28;20489;-74
2022/04/06 06:14:16;;;;;;;6.68;3.35;;;7.70;99.90;;;;;;5082671;28;20573;-74
2022/04/06 06:16:44;;;;;;;5.93;3.78;;;7.70;99.90;;;;;;5085905;28;20028;-74
2022/04/06 06:19:11;;;;;;;5.40;3.67;;;7.70;99.90;;;;;;5076891;28;20024;-74
2022/04/06 06:21:37;;;;;;;5.90;4.03;;;7.80;99.90;;;;;;5088201;28;20378;-74
2022/04/06 06:24:05;;;;;;;9.10;3.92;;;7.80;99.90;;;;;;5091241;28;20523;-74
2022/04/06 06:26:35;;;;;;;5.88;4.20;;;7.90;99.90;;;;;;5081202;28;20024;-74
2022/04/06 06:29:01;;;;;;;7.57;4.32;;;7.90;99.90;;;;;;5090342;28;20031;-74
2022/04/06 06:31:30;;;;;;;9.88;5.03;;;7.90;99.90;;;;;;5090571;28;20512;-74
2022/04/06 06:34:00;;;;;;;9.02;5.40;;;8.00;99.90;;;;;;5087028;28;20077;-74
2022/04/06 06:36:25;;;;;;;8.57;4.97;;;7.90;99.90;;;;;;5089110;28;20513;-74
2022/04/06 06:38:52;;;;;;;8.98;4.47;;;8.00;99.90;;;;;;5091697;28;20024;-74
2022/04/06 06:41:19;;;;;;;7.50;4.60;;;8.00;99.90;;;;;;5081375;28;20028;-74
2022/04/06 06:43:46;;;;;;;8.65;5.03;;;8.00;99.90;;;;;;5089974;28;20066;-74
2022/04/06 06:46:12;;;;;;;7.30;5.07;;;8.00;99.90;;;;;;5089826;28;20020;-74
2022/04/06 06:48:37;;;;;;;7.47;4.40;;;8.00;99.90;;;;;;5089315;28;20541;-74
2022/04/06 06:51:04;;;;;;;6.80;4.05;;;8.00;99.90;;;;;;5091932;28;20028;-74
2022/04/06 06:53:31;;;;;;;8.40;4.07;;;8.00;99.90;;;;;;5081759;28;20027;-74
2022/04/06 06:55:56;;;;;;;5.85;3.35;;;8.10;99.90;;;;;;5082812;28;20421;-74
2022/04/06 06:58:22;;;;;;;4.78;3.45;;;8.20;99.90;;;;;;5078457;28;20045;-74
2022/04/06 07:00:48;;;;;;;5.10;3.78;;;8.20;99.90;;;;;;5086553;28;20028;-74
2022/04/06 07:03:13;;;;;;;6.55;3.83;;;8.30;99.90;;;;;;5087453;28;20028;-74
2022/04/06 07:05:39;;;;;;;5.80;3.58;;;8.30;99.90;;;;;;5088375;28;20386;-74
2022/04/06 07:08:06;;;;;;;5.85;3.33;;;8.30;99.90;;;;;;5081700;28;20021;-75
2022/04/06 07:10:32;;;;;;;4.35;3.25;;;8.30;99.90;;;;;;5078730;28;20036;-74
2022/04/06 07:12:57;;;;;;;5.40;3.13;;;8.40;99.90;;;;;;5088483;28;20085;-74
2022/04/06 07:15:24;;;;;;;6.20;3.40;;;8.40;99.90;;;;;;5090731;28;20461;-74
2022/04/06 07:17:54;;;;;;;4.93;3.30;;;8.50;99.90;;;;;;5088897;28;20021;-74
2022/04/06 07:20:21;;;;;;;4.73;3.00;;;8.50;99.90;;;;;;5089412;28;20031;-74
2022/04/06 07:22:47;;;;;;;7.40;2.65;;;8.60;99.90;;;;;;5081293;28;20085;-74
2022/04/06 07:25:13;;;;;;;3.75;2.90;;;8.70;99.90;;;;;;5082580;28;20020;-74
2022/04/06 07:27:39;;;;;;;4.47;3.13;;;8.70;99.90;;;;;;5072322;28;20114;-74
2022/04/06 07:30:08;;;;;;;4.72;2.72;;;8.70;99.90;;;;;;5091247;28;20020;-74
2022/04/06 07:32:35;;;;;;;6.13;4.07;;;8.80;99.90;;;;;;5089101;28;20032;-74
2022/04/06 07:35:03;;;;;;;4.53;3.13;;;8.80;99.90;;;;;;5080854;28;20091;-74
2022/04/06 07:37:47;;;;;;;3.47;2.78;;;8.80;99.90;;;;;;5088446;28;20043;-74
2022/04/06 07:40:14;;;;;;;6.95;3.30;;;9.00;99.90;;;;;;5088033;28;20028;-74
2022/04/06 07:42:41;;;;;;;9.98;3.38;;;9.00;99.90;;;;;;5087428;28;20094;-74
2022/04/06 07:45:09;;;;;;;5.57;2.97;;;9.10;99.90;;;;;;5090051;28;20024;-74
2022/04/06 07:47:37;;;;;;;5.43;2.80;;;9.10;99.90;;;;;;5087033;28;20065;-74
2022/04/06 07:50:04;;;;;;;3.90;2.80;;;9.30;99.90;;;;;;5082381;28;20032;-74
2022/04/06 07:52:31;;;;;;;4.80;2.47;;;9.40;99.90;;;;;;5082613;28;20021;-74
2022/04/06 07:54:57;;;;;;;3.25;2.45;;;9.50;99.90;;;;;;5073442;28;20040;-74
2022/04/06 07:57:26;;;;;;;4.50;2.95;;;9.60;99.90;;;;;;5069926;28;20024;-74
2022/04/06 07:59:56;;;;;;;6.50;3.05;;;9.70;99.90;;;;;;5082058;28;20031;-74
2022/04/06 08:02:21;;;;;;;6.55;3.50;;;9.60;99.90;;;;;;5082792;28;20036;-74
2022/04/06 08:04:48;;;;;;;6.47;3.20;;;9.80;99.90;;;;;;5083185;28;20051;-74
2022/04/06 08:07:13;;;;;;;5.47;2.78;;;9.90;99.90;;;;;;5076761;28;20493;-74
2022/04/06 08:09:39;;;;;;;4.47;2.88;;;10.00;99.90;;;;;;5087755;28;20028;-74
2022/04/06 08:12:06;;;;;;;4.35;2.85;;;10.00;99.90;;;;;;5090613;28;20450;-74
2022/04/06 08:14:32;;;;;;;3.45;2.58;;;10.00;99.90;;;;;;5077164;28;20035;-74
2022/04/06 08:16:58;;;;;;;7.60;3.28;;;10.10;99.90;;;;;;5081850;28;20024;-74
2022/04/06 08:19:24;;;;;;;6.20;2.63;;;10.20;99.90;;;;;;5080449;28;20482;-74
2022/04/06 08:21:51;;;;;;;4.20;3.13;;;10.20;99.90;;;;;;5087331;28;20027;-74
2022/04/06 08:24:17;;;;;;;6.47;2.85;;;10.10;99.90;;;;;;5090220;28;20031;-74
2022/04/06 08:26:42;;;;;;;3.10;2.20;;;10.00;99.90;;;;;;5081533;28;20103;-74
2022/04/06 08:29:08;;;;;;;4.35;2.88;;;10.10;99.90;;;;;;5088651;28;20035;-74
2022/04/06 08:31:34;;;;;;;2.75;2.30;;;10.10;99.90;;;;;;5080328;28;20498;-74
2022/04/06 08:34:00;;;;;;;9.27;2.90;;;10.20;99.90;;;;;;5083044;28;20042;-74
2022/04/06 08:36:26;;;;;;;3.15;2.85;;;10.10;99.90;;;;;;5085561;28;20481;-74
2022/04/06 08:38:51;;;;;;;5.82;2.72;;;10.00;99.90;;;;;;5090181;28;20020;-74
2022/04/06 08:41:20;;;;;;;5.90;2.63;;;10.00;99.90;;;;;;5088376;28;20035;-74
2022/04/06 08:43:46;;;;;;;3.63;2.20;;;10.00;99.90;;;;;;5083856;28;20028;-74
2022/04/06 08:46:12;;;;;;;4.15;2.22;;;10.10;99.90;;;;;;5075898;28;20024;-74
2022/04/06 08:48:38;;;;;;;4.13;2.50;;;10.10;99.90;;;;;;5088451;28;20082;-74
2022/04/06 08:51:11;;;;;;;5.70;3.42;;;10.00;99.90;;;;;;5094185;28;20043;-74
2022/04/06 08:53:40;;;;;;;6.85;4.32;;;9.90;99.90;;;;;;5081239;28;20524;-75
2022/04/06 08:56:08;;;;;;;5.30;3.72;;;9.90;99.90;;;;;;5085457;28;20054;-74
2022/04/06 08:58:34;;;;;;;7.35;4.10;;;9.90;99.90;;;;;;5083469;28;20170;-74
2022/04/06 09:01:00;;;;;;;6.80;4.38;;;10.00;99.90;;;;;;5086556;28;20061;-74
2022/04/06 09:03:26;;;;;;;9.63;4.18;;;9.90;99.90;;;;;;5087436;28;20111;-74
2022/04/06 09:06:02;;;;;;;9.88;5.45;;;9.90;99.90;;;;;;5092897;28;20096;-74
2022/04/06 09:08:44;;;;;;;11.13;8.45;;;10.00;99.90;;;;;;5091364;28;20042;-74
2022/04/06 09:11:12;;;;;;;13.32;10.93;;;10.10;99.90;;;;;;5089888;28;20058;-74
2022/04/06 09:13:41;;;;;;;9.02;7.70;;;10.10;99.90;;;;;;5082915;28;20085;-74
2022/04/06 09:16:09;;;;;;;7.47;5.65;;;10.10;99.90;;;;;;5088199;28;20016;-74
2022/04/06 09:18:44;;;;;;;5.28;4.28;;;10.10;99.90;;;;;;5090078;28;20027;-74
2022/04/06 09:21:11;;;;;;;4.93;3.50;;;10.10;99.90;;;;;;5093355;28;20017;-74
2022/04/06 09:23:37;;;;;;;5.03;3.13;;;10.00;99.90;;;;;;5077966;28;20521;-74
2022/04/06 09:26:05;;;;;;;3.92;2.75;;;10.00;99.90;;;;;;5077474;28;20032;-74
2022/04/06 09:28:31;;;;;;;5.90;3.45;;;10.10;99.90;;;;;;5090307;28;20103;-74
2022/04/06 09:30:57;;;;;;;4.18;3.08;;;10.20;99.90;;;;;;5088315;28;20118;-74
2022/04/06 09:33:26;;;;;;;3.83;2.80;;;10.20;99.90;;;;;;5088248;28;20078;-74
2022/04/06 09:35:55;;;;;;;4.60;3.00;;;10.30;99.90;;;;;;5075191;28;20031;-74
2022/04/06 09:38:25;;;;;;;4.35;2.88;;;10.30;99.90;;;;;;5085666;28;20524;-74
2022/04/06 09:41:03;;;;;;;2.92;2.55;;;10.30;99.90;;;;;;5091531;28;20504;-74
2022/04/06 09:43:31;;;;;;;6.28;3.75;;;10.30;99.90;;;;;;5091238;28;20027;-74
2022/04/06 09:49:02;;;;;;;4.65;3.60;;;10.40;99.90;;;;;;5071616;28;20090;-74
2022/04/06 09:51:28;;;;;;;5.40;3.45;;;10.50;99.90;;;;;;5089285;28;20035;-74
2022/04/06 09:53:54;;;;;;;5.15;3.25;;;10.50;99.90;;;;;;5092619;28;20027;-74
2022/04/06 09:56:21;;;;;;;3.60;2.90;;;10.60;99.90;;;;;;5088946;28;20078;-74
2022/04/06 09:58:47;;;;;;;4.78;2.88;;;10.60;99.90;;;;;;5089706;28;20091;-74
2022/04/06 10:01:14;;;;;;;2.97;2.65;;;10.60;99.90;;;;;;5083463;28;20024;-74
2022/04/06 10:03:44;;;;;;;6.63;2.60;;;10.60;99.90;;;;;;5088198;28;20021;-74
2022/04/06 10:06:10;;;;;;;2.58;2.38;;;10.60;99.90;;;;;;5092935;28;20028;-74
2022/04/06 10:08:40;;;;;;;5.05;3.10;;;10.70;99.90;;;;;;5089294;28;20523;-74
2022/04/06 10:11:07;;;;;;;9.57;5.30;;;10.70;99.90;;;;;;5084302;28;20036;-74
2022/04/06 10:13:33;;;;;;;8.55;4.57;;;10.70;99.90;;;;;;5080718;28;20036;-74
2022/04/06 10:15:59;;;;;;;4.07;3.42;;;10.80;99.90;;;;;;5090139;28;20020;-74
2022/04/06 10:18:32;;;;;;;7.03;3.95;;;10.70;99.90;;;;;;5090797;28;20024;-75
2022/04/06 10:21:04;;;;;;;3.95;2.55;;;10.80;99.90;;;;;;5085946;28;20020;-74
2022/04/06 10:23:45;;;;;;;5.50;2.78;;;10.90;99.90;;;;;;5090161;28;20032;-74
2022/04/06 10:26:22;;;;;;;4.00;2.95;;;10.90;99.90;;;;;;5085323;28;20112;-75
2022/04/06 10:28:49;;;;;;;4.95;3.35;;;11.00;99.90;;;;;;5078334;28;20036;-74
2022/04/06 10:31:25;;;;;;;5.68;3.40;;;11.00;99.90;;;;;;5077206;28;20036;-74
2022/04/06 10:34:22;;;;;;;5.25;2.80;;;10.90;99.90;;;;;;5070426;28;20036;-75
2022/04/06 10:37:11;;;;;;;5.10;3.42;;;10.80;99.90;;;;;;5070637;28;20031;-75
2022/04/06 10:39:57;;;;;;;7.40;4.97;;;10.90;99.90;;;;;;5087961;28;22164;-74
2022/04/06 10:42:37;;;;;;;8.57;4.95;;;10.80;99.90;;;;;;5071215;28;20016;-74
2022/04/06 10:45:06;;;;;;;6.28;3.88;;;10.90;99.90;;;;;;5091934;28;20020;-75
2022/04/06 10:47:32;;;;;;;4.10;3.35;;;10.80;99.90;;;;;;5090284;28;20020;-75
2022/04/06 10:50:13;;;;;;;6.88;3.95;;;10.70;99.90;;;;;;5082868;28;20025;-75
2022/04/06 10:52:39;;;;;;;3.47;2.65;;;10.80;99.90;;;;;;5076287;28;20035;-74
2022/04/06 10:55:09;;;;;;;5.22;2.92;;;10.70;99.90;;;;;;5087811;28;20044;-74
2022/04/06 10:57:57;;;;;;;5.50;3.65;;;10.80;99.90;;;;;;5088090;28;20016;-74
2022/04/06 11:00:24;;;;;;;8.65;5.95;;;10.80;99.90;;;;;;5070599;28;20029;-75
2022/04/06 11:02:50;;;;;;;9.20;5.90;;;10.70;99.90;;;;;;5071326;28;20039;-75
2022/04/06 11:05:45;;;;;;;10.07;5.57;;;10.70;99.90;;;;;;5069626;28;20064;-74
2022/04/06 11:11:40;;;;;;;10.43;5.57;;;10.80;99.90;;;;;;5086921;28;20421;-74
2022/04/06 11:14:06;;;;;;;9.32;5.22;;;10.80;99.90;;;;;;5072349;28;20543;-74
2022/04/06 11:16:43;;;;;;;8.30;5.20;;;10.70;99.90;;;;;;5071284;28;20052;-74
2022/04/06 11:19:10;;;;;;;7.95;4.80;;;10.80;99.90;;;;;;5087638;28;20020;-74
2022/04/06 11:21:49;;;;;;;9.90;4.93;;;10.80;99.90;;;;;;5088654;28;20031;-74
2022/04/06 11:24:20;;;;;;;5.05;3.58;;;10.70;99.90;;;;;;5087262;28;20027;-74
2022/04/06 11:26:46;;;;;;;5.03;3.55;;;10.70;99.90;;;;;;5074314;28;20036;-74
2022/04/06 11:29:12;;;;;;;4.22;2.95;;;10.60;99.90;;;;;;5084225;28;20507;-75
2022/04/06 11:31:56;;;;;;;5.65;3.58;;;10.70;99.90;;;;;;5083795;28;20039;-74
2022/04/06 11:34:38;;;;;;;6.68;4.57;;;10.70;99.90;;;;;;5087667;28;20036;-75
2022/04/06 11:37:06;;;;;;;6.35;4.15;;;10.80;99.90;;;;;;5083005;28;20029;-74
2022/04/06 11:39:32;;;;;;;5.32;3.75;;;10.70;99.90;;;;;;5069846;28;20038;-74
2022/04/06 11:42:06;;;;;;;6.13;4.60;;;10.60;99.90;;;;;;5090570;28;20024;-74
2022/04/06 11:44:33;;;;;;;6.75;4.55;;;10.60;99.90;;;;;;5080701;28;20063;-75
2022/04/06 11:46:59;;;;;;;9.43;4.88;;;10.70;99.90;;;;;;5088604;28;20039;-74
2022/04/06 11:49:29;;;;;;;7.55;4.72;;;10.70;99.90;;;;;;5087393;28;20554;-75
2022/04/06 11:51:57;;;;;;;10.90;7.78;;;10.70;99.90;;;;;;5055852;28;20165;-75
2022/04/06 11:54:23;;;;;;;13.90;8.55;;;10.50;99.90;;;;;;5069810;28;20042;-74
2022/04/06 11:56:50;;;;;;;11.60;5.88;;;10.40;99.90;;;;;;5089522;28;20032;-74
2022/04/06 11:59:18;;;;;;;8.40;5.97;;;10.40;99.90;;;;;;5080462;28;20024;-74
2022/04/06 12:01:46;;;;;;;9.82;4.65;;;10.40;99.90;;;;;;5086937;28;20047;-74
2022/04/06 12:04:14;;;;;;;7.20;4.38;;;10.30;99.90;;;;;;5089165;28;20019;-74
2022/04/06 12:06:40;;;;;;;6.63;4.13;;;10.30;99.90;;;;;;5086247;28;20501;-74
2022/04/06 12:09:08;;;;;;;11.27;5.47;;;10.40;99.90;;;;;;5085477;28;20020;-74
2022/04/06 12:11:35;;;;;;;5.43;4.45;;;10.40;99.90;;;;;;5088034;28;20028;-74
2022/04/06 12:14:02;;;;;;;9.18;4.45;;;10.60;99.90;;;;;;5080439;28;20032;-74
2022/04/06 12:16:28;;;;;;;8.55;5.15;;;10.60;99.90;;;;;;5089049;28;20107;-75
2022/04/06 12:18:54;;;;;;;5.82;4.40;;;10.60;99.90;;;;;;5084639;28;20032;-75
2022/04/06 12:21:23;;;;;;;9.82;5.50;;;10.60;99.90;;;;;;5086667;28;20036;-74
2022/04/06 12:23:51;;;;;;;8.35;5.85;;;10.60;99.90;;;;;;5090993;28;20028;-75
2022/04/06 12:26:17;;;;;;;11.45;5.45;;;10.60;99.90;;;;;;5084408;28;20544;-75
2022/04/06 12:28:50;;;;;;;5.85;4.03;;;10.50;99.90;;;;;;5084172;28;20055;-74
2022/04/06 12:31:16;;;;;;;5.45;3.40;;;10.50;99.90;;;;;;5084794;28;20078;-74
2022/04/06 12:33:51;;;;;;;4.97;3.88;;;10.60;99.90;;;;;;5090129;28;20032;-74
2022/04/06 12:36:22;;;;;;;6.25;3.80;;;10.50;99.90;;;;;;5078841;28;20055;-74
2022/04/06 12:39:08;;;;;;;6.43;2.92;;;10.40;99.90;;;;;;5085921;28;20031;-74
2022/04/06 12:41:50;;;;;;;5.72;3.78;;;10.40;99.90;;;;;;5084117;28;20031;-74
2022/04/06 12:44:16;;;;;;;5.68;2.85;;;10.40;99.90;;;;;;5084297;28;20058;-75
2022/04/06 12:46:46;;;;;;;6.50;3.30;;;10.50;99.90;;;;;;5091773;28;20063;-74
2022/04/06 12:49:36;;;;;;;4.55;3.40;;;10.50;99.90;;;;;;5085236;28;20017;-74
2022/04/06 12:52:17;;;;;;;5.07;3.03;;;10.50;99.90;;;;;;5072570;28;20031;-74
2022/04/06 12:54:51;;;;;;;4.97;2.75;;;10.50;99.90;;;;;;5092021;28;20048;-74
2022/04/06 12:57:20;;;;;;;3.05;2.58;;;10.60;99.90;;;;;;5092995;28;20016;-75
2022/04/06 13:00:08;;;;;;;3.13;2.83;;;10.60;99.90;;;;;;5079760;28;20513;-74
2022/04/06 13:02:38;;;;;;;7.63;3.30;;;10.60;99.90;;;;;;5082578;28;20036;-74
2022/04/06 13:05:10;;;;;;;3.92;2.80;;;10.70;99.90;;;;;;5083711;28;20029;-74